createdAt,value
2023-05-05T00:01:09.106Z,6.95
2023-05-05T00:03:35.779Z,6.85
2023-05-05T00:06:02.491Z,6.32
2023-05-05T00:08:28.962Z,8.35
2023-05-05T00:10:56.539Z,6.22
2023-05-05T00:13:23.412Z,7.43
2023-05-05T00:15:51.916Z,6.93
2023-05-05T00:18:18.817Z,8.45
2023-05-05T00:20:48.858Z,7.10
2023-05-05T00:23:16.218Z,7.68
2023-05-05T00:25:42.813Z,8.73
2023-05-05T00:28:09.393Z,7.43
2023-05-05T00:30:36.177Z,7.50
2023-05-05T00:33:02.752Z,8.23
2023-05-05T00:35:29.362Z,7.65
2023-05-05T00:37:55.816Z,7.63
2023-05-05T00:40:22.488Z,7.68
2023-05-05T00:42:52.496Z,8.55
2023-05-05T00:45:20.173Z,7.68
2023-05-05T00:47:49.282Z,10.18
2023-05-05T00:50:25.208Z,8.95
2023-05-05T00:52:54.411Z,7.60
2023-05-05T00:55:20.968Z,7.07
2023-05-05T00:57:49.070Z,6.07
2023-05-05T01:00:16.695Z,10.68
2023-05-05T01:02:44.225Z,7.05
2023-05-05T01:05:11.553Z,8.07
2023-05-05T01:07:52.444Z,7.25
2023-05-05T01:10:43.087Z,7.05
2023-05-05T01:13:42.778Z,6.03
2023-05-05T01:16:20.150Z,9.80
2023-05-05T01:19:00.913Z,6.57
2023-05-05T01:21:43.088Z,9.13
2023-05-05T01:24:38.875Z,9.63
2023-05-05T01:27:39.400Z,6.28
2023-05-05T01:30:36.872Z,7.63
2023-05-05T01:33:08.624Z,8.63
2023-05-05T01:35:43.865Z,6.78
2023-05-05T01:38:41.156Z,7.50
2023-05-05T01:41:18.297Z,7.50
2023-05-05T01:43:48.479Z,7.65
2023-05-05T01:46:16.012Z,7.50
2023-05-05T01:48:44.215Z,6.38
2023-05-05T01:51:13.061Z,7.97
2023-05-05T01:53:41.453Z,6.78
2023-05-05T01:56:09.482Z,6.82
2023-05-05T01:58:37.888Z,6.75
2023-05-05T02:01:05.549Z,6.35
2023-05-05T02:03:34.069Z,7.95
2023-05-05T02:06:01.536Z,7.53
2023-05-05T02:08:29.917Z,8.18
2023-05-05T02:10:56.418Z,8.85
2023-05-05T02:13:26.045Z,9.13
2023-05-05T02:15:53.385Z,8.38
2023-05-05T02:18:22.057Z,8.23
2023-05-05T02:20:48.731Z,11.10
2023-05-05T02:23:15.132Z,7.38
2023-05-05T02:25:49.919Z,8.18
2023-05-05T02:28:22.956Z,7.75
2023-05-05T02:30:57.511Z,7.90
2023-05-05T02:33:26.433Z,9.57
2023-05-05T02:35:55.131Z,8.32
2023-05-05T02:38:26.444Z,8.60
2023-05-05T02:40:56.598Z,9.02
2023-05-05T02:43:25.737Z,8.18
2023-05-05T02:45:52.216Z,7.78
2023-05-05T02:48:18.632Z,11.32
2023-05-05T02:50:45.056Z,10.00
2023-05-05T02:53:11.636Z,7.63
2023-05-05T02:55:53.791Z,7.20
2023-05-05T02:58:46.139Z,8.43
2023-05-05T03:01:34.399Z,7.97
2023-05-05T03:04:07.653Z,8.68
2023-05-05T03:06:41.141Z,6.25
2023-05-05T03:09:16.975Z,6.63
2023-05-05T03:12:05.402Z,7.43
2023-05-05T03:14:37.169Z,8.15
2023-05-05T03:17:05.441Z,7.50
2023-05-05T03:19:32.192Z,6.32
2023-05-05T03:21:59.249Z,7.07
2023-05-05T03:26:52.120Z,9.82
2023-05-05T03:29:18.512Z,6.60
2023-05-05T03:31:45.032Z,8.75
2023-05-05T03:34:11.518Z,11.25
2023-05-05T03:36:39.030Z,8.40
2023-05-05T03:39:05.698Z,8.52
2023-05-05T03:41:32.215Z,8.32
2023-05-05T03:43:58.645Z,9.20
2023-05-05T03:46:25.341Z,7.88
2023-05-05T03:48:51.836Z,6.68
2023-05-05T03:51:18.459Z,7.35
2023-05-05T03:53:45.021Z,8.23
2023-05-05T03:56:11.447Z,6.95
2023-05-05T03:58:38.020Z,8.93
2023-05-05T04:01:04.993Z,8.85
2023-05-05T04:03:31.570Z,10.07
2023-05-05T04:05:58.095Z,6.70
2023-05-05T04:08:24.636Z,7.55
2023-05-05T04:10:51.167Z,8.52
2023-05-05T04:13:17.738Z,7.57
2023-05-05T04:15:45.941Z,7.25
2023-05-05T04:18:12.545Z,10.95
2023-05-05T04:20:39.123Z,7.45
2023-05-05T04:23:05.664Z,12.38
2023-05-05T04:25:32.666Z,10.27
2023-05-05T04:30:25.424Z,7.47
2023-05-05T04:32:51.884Z,6.30
2023-05-05T04:35:18.302Z,7.88
2023-05-05T04:37:44.708Z,7.40
2023-05-05T04:40:11.450Z,6.80
2023-05-05T04:42:37.866Z,6.40
2023-05-05T04:45:04.841Z,11.55
2023-05-05T04:49:57.714Z,9.15
2023-05-05T04:52:24.100Z,8.27
2023-05-05T04:54:50.525Z,9.02
2023-05-05T04:57:16.916Z,7.63
2023-05-05T04:59:43.359Z,7.65
2023-05-05T05:02:09.809Z,9.48
2023-05-05T05:04:36.232Z,9.65
2023-05-05T05:07:02.759Z,11.65
2023-05-05T05:09:29.209Z,10.20
2023-05-05T05:12:00.577Z,13.02
2023-05-05T05:14:28.204Z,12.73
2023-05-05T05:16:54.919Z,9.02
2023-05-05T05:19:21.701Z,11.68
2023-05-05T05:21:48.121Z,11.68
2023-05-05T05:24:14.549Z,9.75
2023-05-05T05:26:40.968Z,8.60
2023-05-05T05:29:07.392Z,7.07
2023-05-05T05:31:34.483Z,8.05
2023-05-05T05:34:01.006Z,6.78
2023-05-05T05:36:27.405Z,8.77
2023-05-05T05:38:53.845Z,10.27
2023-05-05T05:41:20.290Z,9.63
2023-05-05T05:43:46.685Z,7.47
2023-05-05T05:46:13.138Z,6.97
2023-05-05T05:48:39.591Z,7.55
2023-05-05T05:51:06.070Z,9.90
2023-05-05T05:53:32.912Z,6.20
2023-05-05T05:55:59.469Z,8.80
2023-05-05T05:58:25.905Z,7.45
2023-05-05T06:00:52.373Z,8.00
2023-05-05T06:03:19.008Z,7.18
2023-05-05T06:05:46.510Z,8.35
2023-05-05T06:08:12.987Z,8.93
2023-05-05T06:10:39.907Z,7.18
2023-05-05T06:15:32.939Z,9.90
2023-05-05T06:17:59.375Z,7.82
2023-05-05T06:20:26.173Z,7.07
2023-05-05T06:22:52.999Z,7.13
2023-05-05T06:25:19.471Z,6.18
2023-05-05T06:27:46.262Z,6.80
2023-05-05T06:30:13.288Z,4.85
2023-05-05T06:32:39.724Z,9.50
2023-05-05T06:35:07.122Z,7.85
2023-05-05T06:37:33.545Z,8.55
2023-05-05T06:40:00.048Z,9.48
2023-05-05T06:42:26.460Z,8.90
2023-05-05T06:44:52.956Z,7.57
2023-05-05T06:47:19.479Z,7.78
2023-05-05T06:49:45.933Z,6.88
2023-05-05T06:52:12.633Z,6.38
2023-05-05T06:54:39.052Z,5.30
2023-05-05T06:57:05.630Z,5.93
2023-05-05T06:59:32.479Z,6.75
2023-05-05T07:04:26.778Z,6.72
2023-05-05T07:06:55.166Z,6.63
2023-05-05T07:09:21.711Z,6.05
2023-05-05T07:11:48.171Z,10.02
2023-05-05T07:14:14.595Z,7.63
2023-05-05T07:16:41.443Z,6.60
2023-05-05T07:19:07.959Z,7.93
2023-05-05T07:21:35.031Z,6.43
2023-05-05T07:24:03.160Z,6.63
2023-05-05T07:26:29.624Z,6.25
2023-05-05T07:28:58.601Z,8.40
2023-05-05T07:31:25.966Z,6.75
2023-05-05T07:33:52.418Z,8.55
2023-05-05T07:36:18.856Z,7.95
2023-05-05T07:38:45.300Z,6.57
2023-05-05T07:41:12.966Z,7.63
2023-05-05T07:43:43.485Z,5.82
2023-05-05T07:46:10.916Z,5.80
2023-05-05T07:48:37.516Z,6.75
2023-05-05T07:51:03.998Z,6.50
2023-05-05T07:53:30.949Z,5.90
2023-05-05T07:55:57.357Z,4.55
2023-05-05T07:58:24.000Z,9.18
2023-05-05T08:00:51.139Z,6.85
2023-05-05T08:03:20.058Z,6.32
2023-05-05T08:05:46.882Z,7.90
2023-05-05T08:13:06.437Z,8.27
2023-05-05T08:15:32.972Z,5.25
2023-05-05T08:17:59.463Z,3.80
2023-05-05T08:20:29.086Z,9.07
2023-05-05T08:22:55.637Z,4.78
2023-05-05T08:25:25.101Z,5.78
2023-05-05T08:27:51.544Z,5.97
2023-05-05T08:30:21.992Z,8.80
2023-05-05T08:32:48.608Z,8.60
2023-05-05T08:35:15.077Z,6.88
2023-05-05T08:37:41.570Z,5.65
2023-05-05T08:40:11.072Z,5.50
2023-05-05T08:42:39.065Z,6.30
2023-05-05T08:45:08.268Z,4.70
2023-05-05T08:47:36.745Z,4.05
2023-05-05T08:50:05.594Z,4.28
2023-05-05T08:52:40.337Z,6.13
2023-05-05T08:55:30.086Z,5.00
2023-05-05T08:57:57.704Z,4.47
2023-05-05T09:00:27.154Z,6.00
2023-05-05T09:02:56.746Z,5.13
2023-05-05T09:05:23.876Z,3.63
2023-05-05T09:07:50.653Z,6.65
2023-05-05T09:10:18.026Z,5.85
2023-05-05T09:12:44.496Z,4.25
2023-05-05T09:15:13.116Z,3.50
2023-05-05T09:17:40.555Z,5.50
2023-05-05T09:20:09.152Z,5.03
2023-05-05T09:22:42.756Z,5.38
2023-05-05T09:25:14.520Z,7.38
2023-05-05T09:27:47.082Z,4.75
2023-05-05T09:30:18.486Z,5.60
2023-05-05T09:32:49.682Z,4.68
2023-05-05T09:35:17.163Z,5.85
2023-05-05T09:37:43.838Z,4.28
2023-05-05T09:42:38.031Z,4.78
2023-05-05T09:45:19.653Z,5.50
2023-05-05T09:47:47.998Z,6.32
2023-05-05T09:50:16.309Z,3.45
2023-05-05T09:52:43.304Z,5.60
2023-05-05T09:55:17.842Z,3.97
2023-05-05T09:57:44.273Z,4.63
2023-05-05T10:00:11.509Z,3.80
2023-05-05T10:02:39.413Z,3.92
2023-05-05T10:05:11.715Z,5.63
2023-05-05T10:07:41.128Z,4.85
2023-05-05T10:10:17.942Z,3.42
2023-05-05T10:12:47.671Z,5.15
2023-05-05T10:15:15.944Z,5.80
2023-05-05T10:18:06.062Z,3.88
2023-05-05T10:20:37.887Z,5.88
2023-05-05T10:23:06.935Z,5.47
2023-05-05T10:25:41.603Z,8.30
2023-05-05T10:28:11.826Z,6.70
2023-05-05T10:30:43.899Z,5.40
2023-05-05T10:35:55.488Z,4.82
2023-05-05T10:38:24.844Z,3.78
2023-05-05T10:40:54.328Z,4.35
2023-05-05T10:43:21.148Z,2.85
2023-05-05T10:45:48.408Z,8.38
2023-05-05T10:48:22.799Z,4.38
2023-05-05T10:50:56.538Z,3.13
2023-05-05T10:53:32.704Z,5.00
2023-05-05T10:56:26.576Z,5.22
2023-05-05T10:58:59.811Z,5.22
2023-05-05T11:01:34.686Z,6.03
2023-05-05T11:04:20.251Z,4.78
2023-05-05T11:07:21.394Z,4.55
2023-05-05T11:10:01.991Z,3.42
2023-05-05T11:12:29.733Z,5.05
2023-05-05T11:15:23.815Z,6.43
2023-05-05T11:17:50.521Z,5.38
2023-05-05T11:20:17.346Z,3.88
2023-05-05T11:23:02.252Z,4.78
2023-05-05T11:25:35.034Z,4.47
2023-05-05T11:28:16.322Z,3.78
2023-05-05T11:30:55.333Z,4.95
2023-05-05T11:33:32.672Z,4.68
2023-05-05T11:36:01.837Z,4.85
2023-05-05T11:38:36.099Z,5.57
2023-05-05T11:41:37.350Z,4.13
2023-05-05T11:44:19.726Z,3.88
2023-05-05T11:46:52.405Z,4.10
2023-05-05T11:49:28.574Z,3.33
2023-05-05T11:52:03.802Z,4.13
2023-05-05T11:54:30.913Z,2.65
2023-05-05T11:56:59.138Z,3.50
2023-05-05T11:59:25.853Z,3.50
2023-05-05T12:01:52.630Z,3.28
2023-05-05T12:04:21.319Z,4.13
2023-05-05T12:06:49.021Z,3.55
2023-05-05T12:09:16.891Z,2.55
2023-05-05T12:11:53.856Z,4.25
2023-05-05T12:14:21.497Z,2.03
2023-05-05T12:16:58.694Z,3.00
2023-05-05T12:19:33.115Z,3.35
2023-05-05T12:22:02.435Z,3.28
2023-05-05T12:24:30.450Z,3.22
2023-05-05T12:27:13.491Z,5.65
2023-05-05T12:29:40.001Z,5.35
2023-05-05T12:34:33.368Z,2.92
2023-05-05T12:36:59.954Z,3.20
2023-05-05T12:42:04.005Z,3.95
2023-05-05T12:44:40.606Z,3.33
2023-05-05T12:47:07.686Z,3.25
2023-05-05T12:49:50.856Z,3.13
2023-05-05T12:52:18.340Z,2.90
2023-05-05T12:54:54.865Z,3.20
2023-05-05T12:57:22.531Z,4.65
2023-05-05T12:59:49.885Z,4.63
2023-05-05T13:02:16.948Z,2.95
2023-05-05T13:04:54.021Z,5.00
2023-05-05T13:07:21.780Z,3.92
2023-05-05T13:09:50.088Z,4.25
2023-05-05T13:12:21.098Z,2.78
2023-05-05T13:14:48.599Z,5.88
2023-05-05T13:17:15.191Z,7.50
2023-05-05T13:22:10.162Z,4.72
2023-05-05T13:24:49.781Z,3.10
2023-05-05T13:27:18.519Z,3.97
2023-05-05T13:32:11.703Z,4.20
2023-05-05T13:37:06.039Z,5.50
2023-05-05T13:39:32.501Z,3.58
2023-05-05T13:41:58.937Z,4.50
2023-05-05T13:44:25.477Z,3.75
2023-05-05T13:49:18.422Z,5.22
2023-05-05T13:54:13.640Z,4.95
2023-05-05T13:56:40.106Z,5.15
2023-05-05T13:59:06.521Z,6.10
2023-05-05T14:01:33.117Z,4.50
2023-05-05T14:06:27.764Z,5.63
2023-05-05T14:08:54.192Z,4.95
2023-05-05T14:11:21.540Z,6.28
2023-05-05T14:13:48.969Z,5.25
2023-05-05T14:16:15.603Z,4.35
2023-05-05T14:18:42.444Z,4.38
2023-05-05T14:21:09.140Z,7.28
2023-05-05T14:23:35.573Z,5.70
2023-05-05T14:26:02.175Z,4.93
2023-05-05T14:30:54.945Z,5.18
2023-05-05T14:33:22.231Z,4.65
2023-05-05T14:35:48.789Z,4.60
2023-05-05T14:40:41.728Z,5.18
2023-05-05T14:43:08.148Z,3.75
2023-05-05T14:45:34.663Z,4.32
2023-05-05T14:48:01.164Z,4.95
2023-05-05T14:52:53.963Z,3.92
2023-05-05T14:55:20.405Z,3.97
2023-05-05T14:57:46.897Z,2.95
2023-05-05T15:00:13.956Z,4.13
2023-05-05T15:02:40.507Z,3.15
2023-05-05T15:05:07.812Z,4.30
2023-05-05T15:07:34.514Z,3.55
2023-05-05T15:10:00.954Z,3.97
2023-05-05T15:12:27.528Z,3.65
2023-05-05T15:17:22.150Z,5.10
2023-05-05T15:19:48.671Z,3.55
2023-05-05T15:22:15.134Z,3.22
2023-05-05T15:24:41.604Z,4.20
2023-05-05T15:27:08.223Z,5.45
2023-05-05T15:32:01.183Z,6.22
2023-05-05T15:34:28.214Z,5.78
2023-05-05T15:36:54.658Z,4.28
2023-05-05T15:39:21.256Z,6.78
2023-05-05T15:44:14.114Z,6.05
2023-05-05T15:46:41.176Z,2.85
2023-05-05T15:49:07.668Z,4.43
2023-05-05T15:51:34.110Z,4.32
2023-05-05T15:54:00.592Z,3.53
2023-05-05T15:56:27.588Z,4.25
2023-05-05T15:58:54.378Z,3.15
2023-05-05T16:01:21.185Z,3.65
2023-05-05T16:03:47.627Z,3.78
2023-05-05T16:06:14.138Z,3.75
2023-05-05T16:08:41.632Z,6.40
2023-05-05T16:11:08.085Z,3.40
2023-05-05T16:13:34.579Z,4.22
2023-05-05T16:16:01.458Z,5.55
2023-05-05T16:18:27.888Z,2.95
2023-05-05T16:20:54.511Z,6.13
2023-05-05T16:25:47.507Z,4.13
2023-05-05T16:28:13.966Z,3.97
2023-05-05T16:30:42.739Z,2.70
2023-05-05T16:33:09.468Z,5.28
2023-05-05T16:35:36.265Z,4.43
2023-05-05T16:40:29.433Z,6.82
2023-05-05T16:45:22.554Z,5.45
2023-05-05T16:47:49.084Z,4.75
2023-05-05T16:50:17.324Z,3.90
2023-05-05T16:52:43.750Z,4.43
2023-05-05T16:55:10.465Z,4.63
2023-05-05T16:57:37.100Z,3.28
2023-05-05T17:00:05.361Z,4.18
2023-05-05T17:02:31.863Z,3.92
2023-05-05T17:04:58.369Z,5.00
2023-05-05T17:07:24.822Z,5.07
2023-05-05T17:09:51.381Z,5.32
2023-05-05T17:12:17.928Z,4.55
2023-05-05T17:14:45.422Z,5.45
2023-05-05T17:17:12.012Z,5.90
2023-05-05T17:19:38.500Z,4.53
2023-05-05T17:22:04.998Z,4.80
2023-05-05T17:24:31.522Z,6.43
2023-05-05T17:26:58.373Z,5.00
2023-05-05T17:29:24.794Z,7.30
2023-05-05T17:31:51.771Z,6.43
2023-05-05T17:34:18.290Z,7.03
2023-05-05T17:36:44.853Z,8.70
2023-05-05T17:39:11.484Z,6.35
2023-05-05T17:41:38.322Z,5.68
2023-05-05T17:46:31.704Z,7.53
2023-05-05T17:48:58.250Z,7.38
2023-05-05T17:51:25.045Z,5.53
2023-05-05T17:56:17.856Z,6.20
2023-05-05T17:58:44.234Z,6.20
2023-05-05T18:01:20.301Z,4.65
2023-05-05T18:03:46.784Z,9.30
2023-05-05T18:06:13.257Z,6.05
2023-05-05T18:08:39.657Z,6.13
2023-05-05T18:11:06.191Z,6.38
2023-05-05T18:13:32.610Z,7.88
2023-05-05T18:15:59.082Z,9.40
2023-05-05T18:18:26.191Z,6.82
2023-05-05T18:20:52.764Z,5.82
2023-05-05T18:23:19.215Z,6.18
2023-05-05T18:25:46.451Z,6.15
2023-05-05T18:28:12.841Z,5.18
2023-05-05T18:30:39.255Z,6.10
2023-05-05T18:33:05.804Z,6.35
2023-05-05T18:35:32.255Z,5.75
2023-05-05T18:37:58.660Z,6.00
2023-05-05T18:40:25.126Z,7.38
2023-05-05T18:42:51.862Z,8.48
2023-05-05T18:45:18.316Z,7.38
2023-05-05T18:47:44.777Z,7.20
2023-05-05T18:50:11.428Z,11.88
2023-05-05T18:52:37.933Z,6.07
2023-05-05T18:55:04.602Z,9.43
2023-05-05T18:57:30.985Z,6.50
2023-05-05T18:59:57.453Z,4.90
2023-05-05T19:02:23.866Z,5.68
2023-05-05T19:04:50.338Z,7.60
2023-05-05T19:07:27.907Z,7.95
2023-05-05T19:10:01.350Z,7.05
2023-05-05T19:12:27.755Z,7.68
2023-05-05T19:14:54.192Z,7.60
2023-05-05T19:17:20.578Z,4.18
2023-05-05T19:19:47.026Z,4.93
2023-05-05T19:22:13.612Z,4.75
2023-05-05T19:24:40.040Z,5.88
2023-05-05T19:27:08.085Z,7.25
2023-05-05T19:29:34.515Z,5.15
2023-05-05T19:32:00.951Z,4.90
2023-05-05T19:34:27.412Z,5.85
2023-05-05T19:36:53.788Z,4.15
2023-05-05T19:39:20.289Z,5.20
2023-05-05T19:41:46.697Z,5.65
2023-05-05T19:44:13.180Z,6.50
2023-05-05T19:46:39.664Z,4.85
2023-05-05T19:49:06.277Z,6.43
2023-05-05T19:51:32.728Z,4.68
2023-05-05T19:53:59.474Z,6.47
2023-05-05T19:56:26.226Z,7.85
2023-05-05T19:58:57.479Z,7.80
2023-05-05T20:01:24.048Z,5.57
2023-05-05T20:03:51.254Z,4.35
2023-05-05T20:06:17.758Z,5.97
2023-05-05T20:08:44.183Z,3.88
2023-05-05T20:11:10.631Z,6.20
2023-05-05T20:13:38.257Z,5.22
2023-05-05T20:16:05.990Z,7.15
2023-05-05T20:18:32.898Z,4.75
2023-05-05T20:25:53.768Z,4.93
2023-05-05T20:28:20.809Z,4.57
2023-05-05T20:30:47.268Z,6.22
2023-05-05T20:33:13.717Z,6.35
2023-05-05T20:35:40.147Z,4.90
2023-05-05T20:38:06.608Z,5.55
2023-05-05T20:40:33.706Z,5.53
2023-05-05T20:43:00.254Z,5.95
2023-05-05T20:45:26.728Z,4.57
2023-05-05T20:47:53.361Z,5.03
2023-05-05T20:50:22.684Z,5.80
2023-05-05T20:52:49.603Z,5.80
2023-05-05T20:55:16.088Z,7.22
2023-05-05T20:57:42.536Z,7.88
2023-05-05T21:00:09.830Z,6.35
2023-05-05T21:02:37.416Z,4.68
2023-05-05T21:05:04.280Z,5.75
2023-05-05T21:10:00.753Z,7.93
2023-05-05T21:12:29.212Z,5.78
2023-05-05T21:14:59.471Z,8.95
2023-05-05T21:17:27.077Z,7.03
2023-05-05T21:19:54.690Z,5.90
2023-05-05T21:22:21.521Z,6.57
2023-05-05T21:24:48.254Z,8.70
2023-05-05T21:27:15.220Z,7.28
2023-05-05T21:32:09.340Z,5.80
2023-05-05T21:34:36.424Z,9.25
2023-05-05T21:37:03.015Z,6.55
2023-05-05T21:39:30.896Z,6.18
2023-05-05T21:41:57.306Z,4.55
2023-05-05T21:44:25.638Z,6.78
2023-05-05T21:46:53.280Z,7.10
2023-05-05T21:49:20.009Z,7.57
2023-05-05T21:51:46.625Z,8.32
2023-05-05T21:54:13.282Z,7.15
2023-05-05T21:56:39.767Z,8.77
2023-05-05T21:59:06.247Z,7.57
2023-05-05T22:01:32.930Z,11.88
2023-05-05T22:03:59.518Z,7.25
2023-05-05T22:06:26.141Z,6.90
2023-05-05T22:08:52.599Z,9.82
2023-05-05T22:11:19.247Z,5.10
2023-05-05T22:13:46.445Z,6.72
2023-05-05T22:16:14.310Z,7.03
2023-05-05T22:18:40.736Z,7.20
2023-05-05T22:21:07.162Z,10.30
2023-05-05T22:23:33.660Z,7.32
2023-05-05T22:26:00.104Z,6.97
2023-05-05T22:28:27.709Z,5.72
2023-05-05T22:30:54.141Z,6.65
2023-05-05T22:33:20.678Z,5.70
2023-05-05T22:35:47.343Z,7.40
2023-05-05T22:38:13.732Z,6.72
2023-05-05T22:40:40.257Z,6.00
2023-05-05T22:43:06.702Z,7.78
2023-05-05T22:45:33.249Z,9.00
2023-05-05T22:47:59.757Z,11.50
2023-05-05T22:50:26.272Z,6.38
2023-05-05T22:52:52.670Z,5.43
2023-05-05T22:55:19.286Z,6.20
2023-05-05T22:57:45.924Z,9.50
2023-05-05T23:00:12.942Z,7.32
2023-05-05T23:02:40.183Z,8.10
2023-05-05T23:05:07.464Z,7.72
2023-05-05T23:07:34.045Z,8.75
2023-05-05T23:10:00.484Z,7.55
2023-05-05T23:12:26.968Z,9.35
2023-05-05T23:14:53.423Z,8.73
2023-05-05T23:17:19.906Z,6.70
2023-05-05T23:19:48.116Z,7.18
2023-05-05T23:22:15.053Z,7.95
2023-05-05T23:24:41.742Z,7.90
2023-05-05T23:27:08.151Z,9.32
2023-05-05T23:29:34.613Z,7.63
2023-05-05T23:32:01.005Z,9.40
2023-05-05T23:34:27.420Z,7.93
2023-05-05T23:36:53.814Z,6.45
2023-05-05T23:39:20.273Z,8.35
2023-05-05T23:41:46.707Z,8.18
2023-05-05T23:44:13.304Z,7.90
2023-05-05T23:46:39.895Z,7.07
2023-05-05T23:49:06.363Z,6.78
2023-05-05T23:51:33.045Z,7.65
2023-05-05T23:53:59.578Z,7.95
2023-05-05T23:56:26.605Z,8.05
